Spring Garden, Missouri
Current Conditions -  °F | °C
As of 4:15 PM on Friday 24 Oct 2014 (Local Time) from KAIZ Reporting Station
Broken Clouds Broken Clouds  
Wind Chill: 24°   Ceiling: 5000
Heat Index: 24°   Visibility: 10mi
Dew Point: 14°   Wind: 9mph
Humidity: 53%   Direction: 230°SW
Pressure: 30.02"   Gusts: NA
Location:  38.3538°N, 92.3679°W
Report Text: KAIZ 242115Z AUTO 23008KT 10SM SCT044 BKN050 24/14 A3002 RMK AO1
Loading
Personal Weather Stations






























Interactive Weather Map
Tropical Storm Tracking
New forecast layout! Learn more

10-Day Weather Forecast

Advertisements
Track Severe Weather on mobile